Terminal Aerodrome Forecast
Issued by NWS

Home | Current Version | Previous Version | Text Only | Print | Product List | Glossary On
Versions: 1 2 3 4 5 6 7 8 9 10 11 12 13 14 15 16 17 18
606
FTUS44 KCRP 211739
TAFLRD
TAF
KLRD 211739Z 2118/2218 25012KT P6SM SKC
     FM211900 28016G28KT P6SM SKC
     FM212300 29006KT P6SM SKC
     FM220500 30013KT P6SM SKC
     FM221400 30022G34KT P6SM SKC=

USA.gov is the U.S. government's official web portal to all federal, state and local government web resources and services.